New Lenox, Illinois
Current Conditions -  °F | °C
As of 10:35 AM on Friday 19 Dec 2014 (Local Time) from KLOT Reporting Station
Overcast Overcast  
Wind Chill: 30°   Ceiling: 2600
Heat Index: 30°   Visibility: 10mi
Dew Point: 24°   Wind: 0mph
Humidity: 76%   Direction: NA
Pressure: 30.32"   Gusts: NA
Location:  41.51°N, 87.97°W
Report Text: KLOT 191635Z AUTO 00000KT 10SM OVC026 M01/M05 A3032 RMK AO2 T10101047
Loading
Personal Weather Stations






























Interactive Weather Map New forecast layout! Learn more

10-Day Weather Forecast

Advertisements
Track Severe Weather on mobile